Terminal Aerodrome Forecast
Issued by NWS Buffalo, NY

Home | Current Version | Previous Version | Text Only | Print | Product List | Glossary On
Versions: 1 2 3 4 5 6 7 8 9 10 11 12 13 14 15 16 17 18 19 20 21 22 23 24 25 26 27 28 29
000
FTUS41 KBUF 270500
TAFBUF
TAF
KBUF 270520Z 2706/2806 04008KT 3SM -SN OVC030
     FM271000 04009KT P6SM VCSH BKN020 OVC030
     FM271200 03009KT P6SM VCSH SCT015 BKN020
     FM272300 34010KT P6SM FEW020 BKN050
     FM280500 28005KT P6SM SCT200=

USA.gov is the U.S. government's official web portal to all federal, state and local government web resources and services.